createdAt,value
2023-03-19T00:01:38.630Z,12.65
2023-03-19T00:06:41.099Z,10.27
2023-03-19T00:11:43.448Z,11.02
2023-03-19T00:16:45.660Z,9.95
2023-03-19T00:21:48.541Z,13.35
2023-03-19T00:26:51.615Z,9.88
2023-03-19T00:31:53.785Z,11.50
2023-03-19T00:36:57.318Z,11.18
2023-03-19T00:41:59.404Z,10.18
2023-03-19T00:47:01.841Z,11.25
2023-03-19T00:52:04.885Z,11.27
2023-03-19T00:57:07.399Z,10.40
2023-03-19T01:02:09.637Z,8.45
2023-03-19T01:07:11.822Z,5.95
2023-03-19T01:12:14.100Z,5.85
2023-03-19T01:17:16.248Z,5.88
2023-03-19T01:22:18.753Z,5.70
2023-03-19T01:27:21.631Z,5.25
2023-03-19T01:32:23.885Z,5.57
2023-03-19T01:37:26.121Z,5.38
2023-03-19T01:42:28.508Z,4.43
2023-03-19T01:47:37.200Z,4.93
2023-03-19T01:52:39.477Z,4.70
2023-03-19T01:57:41.564Z,5.00
2023-03-19T02:02:48.386Z,5.10
2023-03-19T02:07:51.362Z,5.20
2023-03-19T02:12:53.698Z,5.05
2023-03-19T02:17:55.916Z,4.93
2023-03-19T02:23:35.450Z,5.28
2023-03-19T02:28:42.712Z,4.38
2023-03-19T02:33:45.840Z,5.28
2023-03-19T02:38:48.921Z,5.35
2023-03-19T02:43:51.674Z,5.43
2023-03-19T02:48:54.052Z,6.00
2023-03-19T02:53:56.387Z,6.10
2023-03-19T02:58:58.658Z,5.53
2023-03-19T03:04:00.907Z,5.60
2023-03-19T03:09:04.051Z,7.32
2023-03-19T03:14:06.286Z,9.32
2023-03-19T03:19:08.391Z,7.85
2023-03-19T03:24:11.276Z,6.13
2023-03-19T03:29:13.606Z,6.00
2023-03-19T03:34:16.323Z,5.75
2023-03-19T03:39:19.468Z,5.03
2023-03-19T03:44:21.847Z,6.00
2023-03-19T03:49:24.064Z,5.25
2023-03-19T03:54:26.232Z,5.30
2023-03-19T03:59:28.465Z,4.97
2023-03-19T04:04:32.224Z,4.78
2023-03-19T04:09:34.404Z,5.18
2023-03-19T04:14:37.029Z,4.82
2023-03-19T04:19:39.282Z,9.23
2023-03-19T04:24:41.798Z,6.35
2023-03-19T04:29:44.288Z,4.82
2023-03-19T04:34:47.116Z,4.88
2023-03-19T04:39:49.276Z,6.43
2023-03-19T04:44:51.437Z,8.15
2023-03-19T04:49:53.545Z,8.13
2023-03-19T04:54:56.216Z,6.10
2023-03-19T04:59:58.464Z,6.35
2023-03-19T05:05:01.122Z,7.03
2023-03-19T05:10:03.422Z,7.00
2023-03-19T05:15:06.071Z,6.78
2023-03-19T05:20:09.933Z,6.45
2023-03-19T05:25:12.079Z,6.15
2023-03-19T05:30:14.381Z,5.68
2023-03-19T05:35:18.152Z,6.07
2023-03-19T05:40:20.565Z,6.07
2023-03-19T05:45:22.794Z,7.07
2023-03-19T05:50:25.287Z,5.28
2023-03-19T05:55:27.406Z,6.32
2023-03-19T06:00:30.140Z,7.82
2023-03-19T06:05:33.073Z,7.40
2023-03-19T06:10:36.703Z,8.45
2023-03-19T06:15:39.025Z,8.00
2023-03-19T06:20:41.113Z,8.10
2023-03-19T06:25:44.049Z,9.52
2023-03-19T06:30:46.312Z,7.53
2023-03-19T06:35:49.730Z,7.28
2023-03-19T06:40:52.138Z,7.32
2023-03-19T06:45:54.334Z,7.18
2023-03-19T06:50:56.803Z,6.03
2023-03-19T06:55:59.348Z,6.18
2023-03-19T07:01:01.990Z,5.75
2023-03-19T07:06:04.983Z,6.05
2023-03-19T07:11:07.962Z,5.13
2023-03-19T07:16:10.332Z,5.20
2023-03-19T07:21:12.773Z,5.07
2023-03-19T07:26:14.877Z,6.03
2023-03-19T07:31:18.028Z,5.57
2023-03-19T07:36:21.664Z,6.15
2023-03-19T07:41:23.983Z,5.97
2023-03-19T07:46:26.209Z,5.53
2023-03-19T07:51:28.444Z,5.82
2023-03-19T07:56:30.731Z,5.25
2023-03-19T08:01:33.129Z,5.18
2023-03-19T08:06:35.301Z,4.43
2023-03-19T08:11:37.953Z,4.40
2023-03-19T08:16:40.444Z,5.30
2023-03-19T08:21:43.220Z,4.63
2023-03-19T08:26:45.925Z,4.60
2023-03-19T08:31:48.164Z,5.07
2023-03-19T08:36:50.418Z,4.85
2023-03-19T08:41:52.878Z,5.00
2023-03-19T08:46:55.065Z,4.97
2023-03-19T08:51:57.893Z,4.90
2023-03-19T08:57:02.900Z,4.78
2023-03-19T09:02:05.943Z,3.90
2023-03-19T09:07:08.343Z,3.85
2023-03-19T09:12:13.871Z,3.83
2023-03-19T09:17:16.269Z,3.97
2023-03-19T09:22:18.488Z,4.25
2023-03-19T09:27:21.488Z,4.38
2023-03-19T09:32:24.819Z,4.13
2023-03-19T09:37:27.062Z,4.15
2023-03-19T09:43:09.384Z,3.70
2023-03-19T09:48:19.810Z,3.47
2023-03-19T09:53:39.786Z,3.53
2023-03-19T09:58:42.091Z,2.92
2023-03-19T10:04:08.863Z,3.08
2023-03-19T10:09:29.220Z,3.53
2023-03-19T10:20:05.394Z,3.38
2023-03-19T10:25:16.749Z,2.95
2023-03-19T10:30:20.007Z,3.22
2023-03-19T10:35:37.692Z,3.25
2023-03-19T10:40:52.652Z,4.03
2023-03-19T10:45:56.070Z,31.95
2023-03-19T10:51:05.927Z,3.70
2023-03-19T10:56:21.365Z,4.30
2023-03-19T11:01:36.724Z,4.22
2023-03-19T11:06:39.595Z,26.02
2023-03-19T11:11:53.941Z,11.05
2023-03-19T11:17:26.450Z,11.77
2023-03-19T11:22:35.035Z,6.18
2023-03-19T11:27:37.705Z,4.63
2023-03-19T11:33:09.024Z,37.33
2023-03-19T11:38:25.051Z,9.65
2023-03-19T11:43:46.646Z,4.63
2023-03-19T11:49:14.740Z,3.33
2023-03-19T11:54:32.587Z,10.50
2023-03-19T12:00:08.461Z,3.38
2023-03-19T12:05:51.564Z,8.25
2023-03-19T12:11:04.623Z,3.42
2023-03-19T12:16:46.450Z,3.10
2023-03-19T12:22:19.414Z,3.40
2023-03-19T12:27:31.303Z,2.90
2023-03-19T12:32:47.631Z,4.25
2023-03-19T12:38:19.340Z,2.97
2023-03-19T12:43:36.488Z,2.58
2023-03-19T12:49:03.384Z,3.10
2023-03-19T12:54:22.938Z,2.42
2023-03-19T12:59:46.044Z,3.28
2023-03-19T13:05:08.740Z,2.40
2023-03-19T13:10:18.563Z,2.35
2023-03-19T13:15:33.689Z,3.20
2023-03-19T13:21:13.257Z,2.67
2023-03-19T13:26:17.296Z,2.30
2023-03-19T13:31:22.341Z,2.30
2023-03-19T13:36:28.825Z,1.98
2023-03-19T13:41:33.987Z,2.10
2023-03-19T13:46:39.728Z,2.28
2023-03-19T13:51:41.946Z,2.17
2023-03-19T13:57:18.670Z,3.80
2023-03-19T14:02:27.456Z,2.20
2023-03-19T14:07:38.447Z,1.95
2023-03-19T14:12:44.204Z,1.75
2023-03-19T14:17:49.587Z,2.15
2023-03-19T14:23:11.345Z,1.98
2023-03-19T14:28:19.045Z,2.97
2023-03-19T14:33:43.400Z,2.97
2023-03-19T14:38:53.342Z,1.88
2023-03-19T14:44:08.549Z,2.35
2023-03-19T14:49:57.363Z,1.98
2023-03-19T14:55:02.370Z,1.80
2023-03-19T15:00:07.428Z,2.22
2023-03-19T15:05:31.323Z,2.03
2023-03-19T15:10:55.397Z,1.70
2023-03-19T15:16:19.162Z,2.15
2023-03-19T15:21:22.317Z,2.80
2023-03-19T15:26:33.346Z,3.00
2023-03-19T15:32:06.129Z,2.20
2023-03-19T15:37:15.739Z,2.35
2023-03-19T15:42:21.328Z,2.00
2023-03-19T15:47:30.357Z,2.45
2023-03-19T15:52:42.374Z,2.20
2023-03-19T15:57:45.611Z,2.70
2023-03-19T16:02:51.758Z,2.13
2023-03-19T16:08:00.142Z,2.30
2023-03-19T16:13:05.878Z,2.20
2023-03-19T16:18:27.254Z,3.08
2023-03-19T16:23:36.002Z,2.90
2023-03-19T16:28:45.344Z,3.38
2023-03-19T16:33:48.079Z,3.45
2023-03-19T16:38:56.600Z,3.33
2023-03-19T16:44:14.319Z,4.63
2023-03-19T16:49:16.473Z,7.32
2023-03-19T16:54:19.363Z,7.43
2023-03-19T16:59:28.196Z,7.30
2023-03-19T17:04:31.266Z,8.30
2023-03-19T17:09:33.661Z,8.98
2023-03-19T17:14:36.539Z,11.50
2023-03-19T17:19:38.795Z,10.45
2023-03-19T17:24:41.175Z,10.25
2023-03-19T17:29:43.367Z,9.20
2023-03-19T17:34:45.597Z,10.02
2023-03-19T17:39:48.218Z,11.30
2023-03-19T17:44:50.777Z,9.60
2023-03-19T17:49:53.063Z,11.88
2023-03-19T17:54:55.573Z,10.20
2023-03-19T17:59:57.756Z,8.70
2023-03-19T18:05:00.593Z,8.68
2023-03-19T18:10:02.743Z,9.77
2023-03-19T18:15:05.263Z,11.52
2023-03-19T18:20:09.099Z,10.75
2023-03-19T18:25:19.435Z,10.32
2023-03-19T18:30:24.168Z,13.40
2023-03-19T18:35:36.526Z,18.65
2023-03-19T18:40:38.860Z,10.65
2023-03-19T18:45:43.134Z,10.10
2023-03-19T18:50:47.562Z,13.40
2023-03-19T18:55:50.167Z,7.45
2023-03-19T19:00:53.585Z,7.60
2023-03-19T19:05:56.688Z,11.05
2023-03-19T19:11:04.091Z,11.88
2023-03-19T19:16:06.565Z,8.07
2023-03-19T19:21:10.635Z,8.75
2023-03-19T19:26:25.841Z,11.05
2023-03-19T19:31:32.125Z,13.18
2023-03-19T19:36:34.433Z,12.23
2023-03-19T19:41:37.001Z,11.38
2023-03-19T19:46:39.318Z,12.13
2023-03-19T19:51:42.060Z,13.23
2023-03-19T19:56:44.250Z,13.18
2023-03-19T20:01:46.541Z,14.15
2023-03-19T20:06:48.773Z,16.60
2023-03-19T20:11:51.954Z,15.10
2023-03-19T20:16:54.132Z,14.10
2023-03-19T20:21:56.557Z,15.73
2023-03-19T20:27:01.051Z,18.52
2023-03-19T20:32:03.393Z,17.02
2023-03-19T20:37:05.625Z,22.65
2023-03-19T20:42:16.114Z,13.52
2023-03-19T20:47:21.864Z,11.00
2023-03-19T20:52:24.088Z,11.88
2023-03-19T20:57:29.596Z,13.05
2023-03-19T21:02:31.821Z,12.57
2023-03-19T21:07:34.971Z,12.70
2023-03-19T21:12:37.167Z,13.38
2023-03-19T21:17:39.905Z,14.70
2023-03-19T21:22:43.851Z,15.00
2023-03-19T21:27:50.844Z,15.43
2023-03-19T21:32:54.282Z,14.43
2023-03-19T21:37:56.707Z,15.93
2023-03-19T21:43:02.902Z,15.32
2023-03-19T21:48:07.816Z,15.63
2023-03-19T21:53:10.910Z,13.40
2023-03-19T21:58:15.851Z,12.35
2023-03-19T22:03:20.833Z,12.73
2023-03-19T22:08:24.609Z,11.35
2023-03-19T22:13:31.074Z,12.07
2023-03-19T22:18:33.879Z,10.93
2023-03-19T22:23:36.840Z,11.73
2023-03-19T22:28:39.106Z,12.07
2023-03-19T22:33:41.311Z,12.40
2023-03-19T22:38:47.259Z,12.77
2023-03-19T22:43:49.954Z,11.65
2023-03-19T22:48:52.719Z,11.95
2023-03-19T22:53:56.432Z,13.45
2023-03-19T22:58:58.616Z,11.85
2023-03-19T23:04:24.398Z,11.50
2023-03-19T23:09:30.187Z,11.68
2023-03-19T23:14:32.697Z,11.77
2023-03-19T23:19:37.055Z,12.23
2023-03-19T23:24:39.198Z,10.95
2023-03-19T23:29:44.889Z,9.40
2023-03-19T23:34:58.562Z,9.90
2023-03-19T23:40:02.658Z,9.27
2023-03-19T23:45:05.662Z,10.30
2023-03-19T23:50:12.666Z,11.40
2023-03-19T23:55:15.010Z,10.85
